Time;durP1;ratioP1;P1;durP2;ratioP2;P2;SDS_P1;SDS_P2;PMS_P1;PMS_P2;Temp;Humidity;BMP_temperature;BMP_pressure;BME280_temperature;BME280_humidity;BME280_pressure;Samples;Min_cycle;Max_cycle;Signal;HPM_P1;HPM_P2
2023/09/24 00:01:58;;;;;;;12.55;6.10;;;;;;;;;;6286041;28;20051;-67
2023/09/24 00:04:59;;;;;;;13.27;6.40;;;;;;;;;;6283795;28;20398;-65
2023/09/24 00:07:59;;;;;;;8.82;5.82;;;;;;;;;;6286637;28;20044;-67
2023/09/24 00:11:02;;;;;;;11.32;5.55;;;;;;;;;;6287299;28;20048;-62
2023/09/24 00:14:03;;;;;;;11.68;5.82;;;;;;;;;;6267215;28;20063;-69
2023/09/24 00:17:05;;;;;;;8.27;5.10;;;;;;;;;;6284398;28;20063;-70
2023/09/24 00:20:06;;;;;;;8.07;5.28;;;;;;;;;;6288013;28;20080;-72
2023/09/24 00:23:06;;;;;;;11.07;5.30;;;;;;;;;;6287877;28;20553;-73
2023/09/24 00:26:07;;;;;;;8.98;5.38;;;;;;;;;;6284961;28;20048;-70
2023/09/24 00:29:09;;;;;;;9.48;4.78;;;;;;;;;;6268220;28;20042;-65
2023/09/24 00:32:10;;;;;;;9.45;4.50;;;;;;;;;;6286634;28;20033;-69
2023/09/24 00:35:11;;;;;;;11.68;4.75;;;;;;;;;;6286131;28;20411;-70
2023/09/24 00:38:11;;;;;;;8.07;4.45;;;;;;;;;;6287399;28;20032;-68
2023/09/24 00:41:13;;;;;;;9.48;4.47;;;;;;;;;;6286591;28;20217;-68
2023/09/24 00:44:15;;;;;;;11.38;4.82;;;;;;;;;;6267010;28;20128;-72
2023/09/24 00:47:16;;;;;;;7.47;4.60;;;;;;;;;;6284011;28;20144;-71
2023/09/24 00:50:17;;;;;;;6.88;4.43;;;;;;;;;;6286223;28;20332;-71
2023/09/24 00:53:18;;;;;;;8.55;4.95;;;;;;;;;;6285969;28;20045;-64
2023/09/24 00:56:18;;;;;;;9.45;4.78;;;;;;;;;;6285604;28;20423;-73
2023/09/24 00:59:19;;;;;;;8.23;5.13;;;;;;;;;;6286554;28;20448;-69
2023/09/24 01:02:19;;;;;;;9.13;5.03;;;;;;;;;;6287535;28;20040;-70
2023/09/24 01:05:20;;;;;;;8.38;4.70;;;;;;;;;;6288702;28;20048;-67
2023/09/24 01:08:22;;;;;;;8.13;5.32;;;;;;;;;;6272818;28;20380;-69
2023/09/24 01:11:24;;;;;;;8.40;5.07;;;;;;;;;;6291143;28;20048;-69
2023/09/24 01:14:25;;;;;;;8.83;4.90;;;;;;;;;;6290823;28;20139;-62
2023/09/24 01:17:26;;;;;;;10.80;5.03;;;;;;;;;;6289241;28;20803;-72
2023/09/24 01:20:30;;;;;;;8.68;5.00;;;;;;;;;;6289617;28;20082;-74
2023/09/24 01:23:35;;;;;;;11.57;4.90;;;;;;;;;;6289853;28;20036;-72
2023/09/24 01:26:36;;;;;;;12.65;6.25;;;;;;;;;;6282774;28;20432;-74
2023/09/24 01:29:36;;;;;;;8.60;4.75;;;;;;;;;;6287706;28;20495;-64
2023/09/24 01:32:37;;;;;;;8.35;4.78;;;;;;;;;;6288615;28;20484;-69
2023/09/24 01:35:38;;;;;;;11.32;4.72;;;;;;;;;;6291501;28;20058;-66
2023/09/24 01:38:40;;;;;;;8.60;5.30;;;;;;;;;;6288425;28;20044;-66
2023/09/24 01:41:41;;;;;;;;;;;;;;;;;;6289972;28;20495;-62
2023/09/24 01:44:42;;;;;;;10.38;5.00;;;;;;;;;;6289217;28;19927;-65
2023/09/24 01:47:49;;;;;;;10.15;5.90;;;;;;;;;;6288573;28;20066;-66
2023/09/24 01:50:52;;;;;;;8.50;5.18;;;;;;;;;;6287483;28;20056;-67
2023/09/24 01:53:53;;;;;;;10.90;5.57;;;;;;;;;;6287748;28;20047;-63
2023/09/24 01:56:54;;;;;;;10.02;5.97;;;;;;;;;;6289046;28;20048;-63
2023/09/24 02:00:15;;;;;;;9.95;5.57;;;;;;;;;;6289251;28;20051;-72
2023/09/24 02:03:16;;;;;;;7.40;4.45;;;;;;;;;;6288458;28;20048;-62
2023/09/24 02:06:17;;;;;;;8.93;5.05;;;;;;;;;;6290185;28;20095;-62
2023/09/24 02:09:18;;;;;;;10.57;5.83;;;;;;;;;;6287203;28;20131;-62
2023/09/24 02:12:19;;;;;;;8.70;5.20;;;;;;;;;;6290401;28;20943;-61
2023/09/24 02:15:20;;;;;;;8.55;5.72;;;;;;;;;;6286510;28;20052;-61
2023/09/24 02:18:22;;;;;;;10.40;5.47;;;;;;;;;;6288987;28;20514;-61
2023/09/24 02:21:24;;;;;;;11.25;5.78;;;;;;;;;;6281379;28;20041;-62
2023/09/24 02:24:25;;;;;;;8.13;5.22;;;;;;;;;;6289107;28;20063;-60
2023/09/24 02:27:26;;;;;;;11.07;5.72;;;;;;;;;;6288063;28;20040;-62
2023/09/24 02:30:29;;;;;;;10.52;5.45;;;;;;;;;;6287437;28;20109;-63
2023/09/24 02:33:29;;;;;;;8.95;5.53;;;;;;;;;;6286832;28;20517;-63
2023/09/24 02:36:30;;;;;;;10.27;5.45;;;;;;;;;;6286964;28;20072;-63
2023/09/24 02:39:30;;;;;;;10.52;5.72;;;;;;;;;;6286330;28;20103;-63
2023/09/24 02:42:31;;;;;;;9.98;5.28;;;;;;;;;;6287190;28;20049;-63
2023/09/24 02:45:33;;;;;;;9.48;5.00;;;;;;;;;;6288479;28;20040;-63
2023/09/24 02:48:35;;;;;;;7.75;4.75;;;;;;;;;;6287270;28;20491;-63
2023/09/24 02:51:36;;;;;;;7.75;4.75;;;;;;;;;;6288293;28;20041;-62
2023/09/24 02:54:37;;;;;;;10.18;5.47;;;;;;;;;;6288490;28;20071;-62
2023/09/24 02:57:38;;;;;;;11.07;5.50;;;;;;;;;;6285470;28;20051;-62
2023/09/24 03:00:41;;;;;;;9.83;5.17;;;;;;;;;;6287041;28;20506;-62
2023/09/24 03:03:42;;;;;;;10.55;5.03;;;;;;;;;;6288335;28;20083;-62
2023/09/24 03:06:43;;;;;;;10.38;5.35;;;;;;;;;;6287890;28;20419;-63
2023/09/24 03:09:44;;;;;;;8.95;5.50;;;;;;;;;;6269935;28;20045;-63
2023/09/24 03:12:46;;;;;;;9.55;5.10;;;;;;;;;;6287775;28;20139;-62
2023/09/24 03:15:46;;;;;;;9.65;5.55;;;;;;;;;;6288215;28;20047;-62
2023/09/24 03:18:47;;;;;;;12.23;5.40;;;;;;;;;;6287253;28;20068;-62
2023/09/24 03:21:48;;;;;;;14.60;5.53;;;;;;;;;;6287805;28;20048;-63
2023/09/24 03:24:49;;;;;;;8.40;5.00;;;;;;;;;;6285801;28;20515;-64
2023/09/24 03:27:54;;;;;;;11.15;5.28;;;;;;;;;;6286616;28;20053;-63
2023/09/24 03:30:54;;;;;;;9.40;5.32;;;;;;;;;;6287453;28;20515;-62
2023/09/24 03:33:55;;;;;;;8.73;5.28;;;;;;;;;;6287541;28;20040;-63
2023/09/24 03:36:56;;;;;;;8.30;5.20;;;;;;;;;;6269640;28;20166;-65
2023/09/24 03:39:56;;;;;;;9.40;5.28;;;;;;;;;;6285745;28;20036;-63
2023/09/24 03:42:57;;;;;;;7.28;5.10;;;;;;;;;;6288577;28;20083;-62
2023/09/24 03:45:57;;;;;;;8.95;5.10;;;;;;;;;;6288688;28;20036;-62
2023/09/24 03:48:58;;;;;;;8.00;5.22;;;;;;;;;;6285511;28;20040;-62
2023/09/24 03:51:59;;;;;;;17.55;5.13;;;;;;;;;;6286403;28;20056;-62
2023/09/24 03:55:00;;;;;;;10.13;4.90;;;;;;;;;;6284614;28;20055;-63
2023/09/24 03:58:01;;;;;;;10.27;5.55;;;;;;;;;;6285595;28;20055;-62
2023/09/24 04:01:09;;;;;;;7.40;4.70;;;;;;;;;;6286383;28;20143;-62
2023/09/24 04:04:11;;;;;;;9.55;5.00;;;;;;;;;;6283384;28;20041;-63
2023/09/24 04:07:15;;;;;;;7.95;5.22;;;;;;;;;;6274049;28;20066;-62
2023/09/24 04:10:16;;;;;;;9.13;4.93;;;;;;;;;;6286419;28;20076;-62
2023/09/24 04:13:17;;;;;;;7.20;5.40;;;;;;;;;;6287306;28;20553;-62
2023/09/24 04:16:18;;;;;;;11.60;5.22;;;;;;;;;;6287818;28;20040;-62
2023/09/24 04:19:19;;;;;;;11.55;5.35;;;;;;;;;;6285772;28;20483;-62
2023/09/24 04:22:19;;;;;;;8.25;5.22;;;;;;;;;;6286245;28;20055;-62
2023/09/24 04:25:21;;;;;;;9.45;5.43;;;;;;;;;;6286270;28;20083;-62
2023/09/24 04:28:22;;;;;;;8.23;5.00;;;;;;;;;;6286754;28;20040;-63
2023/09/24 04:31:23;;;;;;;9.40;5.25;;;;;;;;;;6286361;28;20370;-62
2023/09/24 04:34:23;;;;;;;10.35;5.30;;;;;;;;;;6287083;28;20036;-62
2023/09/24 04:37:24;;;;;;;10.40;5.60;;;;;;;;;;6288207;28;20048;-62
2023/09/24 04:40:25;;;;;;;12.65;5.82;;;;;;;;;;6291482;28;20221;-62
2023/09/24 04:43:25;;;;;;;8.13;5.27;;;;;;;;;;6292100;28;20049;-62
2023/09/24 04:46:26;;;;;;;10.52;5.22;;;;;;;;;;6291445;28;20316;-63
2023/09/24 04:49:27;;;;;;;14.45;5.35;;;;;;;;;;6290277;28;20508;-63
2023/09/24 04:52:27;;;;;;;10.10;6.20;;;;;;;;;;6291463;28;20091;-62
2023/09/24 04:55:28;;;;;;;11.48;5.57;;;;;;;;;;6296139;28;20056;-62
2023/09/24 04:58:29;;;;;;;9.68;5.40;;;;;;;;;;6290781;28;20568;-62
2023/09/24 05:01:29;;;;;;;11.05;5.30;;;;;;;;;;6289756;28;20079;-62
2023/09/24 05:04:31;;;;;;;8.70;5.70;;;;;;;;;;6290922;28;20446;-63
2023/09/24 05:07:32;;;;;;;7.50;4.95;;;;;;;;;;6290246;28;20059;-63
2023/09/24 05:10:33;;;;;;;8.38;5.00;;;;;;;;;;6289543;28;20475;-62
2023/09/24 05:13:34;;;;;;;7.93;4.72;;;;;;;;;;6291797;28;20079;-63
2023/09/24 05:16:35;;;;;;;8.32;5.28;;;;;;;;;;6290757;28;20040;-63
2023/09/24 05:19:36;;;;;;;9.35;5.32;;;;;;;;;;6288311;28;20068;-63
2023/09/24 05:22:36;;;;;;;10.15;5.57;;;;;;;;;;6288370;28;20047;-63
2023/09/24 05:25:37;;;;;;;14.80;5.90;;;;;;;;;;6289550;28;20051;-62
2023/09/24 05:28:38;;;;;;;10.27;6.00;;;;;;;;;;6291831;28;20404;-63
2023/09/24 05:31:38;;;;;;;7.55;5.55;;;;;;;;;;6289161;28;20133;-63
2023/09/24 05:34:39;;;;;;;11.73;5.78;;;;;;;;;;6289111;28;20036;-64
2023/09/24 05:37:40;;;;;;;8.27;5.40;;;;;;;;;;6291197;28;20534;-63
2023/09/24 05:40:40;;;;;;;10.43;5.30;;;;;;;;;;6289321;28;20049;-63
2023/09/24 05:43:44;;;;;;;8.77;5.00;;;;;;;;;;6289259;28;20492;-62
2023/09/24 05:46:44;;;;;;;9.55;5.30;;;;;;;;;;6289483;28;20518;-71
2023/09/24 05:49:45;;;;;;;13.13;5.70;;;;;;;;;;6288689;28;20048;-67
2023/09/24 05:52:46;;;;;;;10.77;5.95;;;;;;;;;;6289489;28;20040;-65
2023/09/24 05:55:53;;;;;;;13.80;5.55;;;;;;;;;;6287331;28;21126;-63
2023/09/24 05:58:56;;;;;;;10.82;5.70;;;;;;;;;;6284108;28;20123;-64
2023/09/24 06:01:57;;;;;;;9.57;5.63;;;;;;;;;;6288605;28;20414;-69
2023/09/24 06:04:58;;;;;;;9.55;5.70;;;;;;;;;;6289816;28;20047;-63
2023/09/24 06:07:58;;;;;;;9.60;5.43;;;;;;;;;;6278229;28;20573;-64
2023/09/24 06:10:59;;;;;;;14.20;5.85;;;;;;;;;;6288314;28;20297;-64
2023/09/24 06:14:00;;;;;;;10.00;5.97;;;;;;;;;;6291307;28;20044;-63
2023/09/24 06:17:00;;;;;;;8.68;5.85;;;;;;;;;;6290505;28;20169;-68
2023/09/24 06:20:01;;;;;;;8.68;5.53;;;;;;;;;;6289888;28;20523;-65
2023/09/24 06:23:02;;;;;;;8.57;5.18;;;;;;;;;;6290703;28;20041;-73
2023/09/24 06:26:04;;;;;;;8.00;5.10;;;;;;;;;;6290603;28;20044;-73
2023/09/24 06:29:04;;;;;;;8.73;5.65;;;;;;;;;;6290311;28;20472;-71
2023/09/24 06:32:05;;;;;;;12.45;5.93;;;;;;;;;;6288886;28;20743;-63
2023/09/24 06:35:06;;;;;;;9.77;5.35;;;;;;;;;;6287986;28;20483;-63
2023/09/24 06:38:07;;;;;;;11.68;6.07;;;;;;;;;;6287793;28;20182;-64
2023/09/24 06:41:07;;;;;;;9.65;5.90;;;;;;;;;;6287852;28;20044;-63
2023/09/24 06:44:10;;;;;;;11.93;5.95;;;;;;;;;;6289516;28;20041;-63
2023/09/24 06:47:10;;;;;;;9.93;5.30;;;;;;;;;;6286723;28;20094;-62
2023/09/24 06:50:11;;;;;;;10.13;5.80;;;;;;;;;;6284990;28;20109;-63
2023/09/24 06:53:11;;;;;;;8.63;5.40;;;;;;;;;;6287046;28;20052;-63
2023/09/24 06:56:12;;;;;;;8.82;5.47;;;;;;;;;;6283889;28;20465;-63
2023/09/24 06:59:13;;;;;;;9.13;5.53;;;;;;;;;;6284314;28;20399;-64
2023/09/24 07:02:15;;;;;;;8.23;5.25;;;;;;;;;;6286078;28;20512;-64
2023/09/24 07:05:15;;;;;;;11.65;5.70;;;;;;;;;;6288984;28;20703;-63
2023/09/24 07:08:16;;;;;;;10.50;5.90;;;;;;;;;;6286431;28;20040;-63
2023/09/24 07:11:28;;;;;;;13.15;6.03;;;;;;;;;;6287606;28;20478;-64
2023/09/24 07:14:28;;;;;;;9.93;6.05;;;;;;;;;;6288369;28;20044;-63
2023/09/24 07:17:29;;;;;;;15.30;6.32;;;;;;;;;;6287443;28;20047;-63
2023/09/24 07:20:29;;;;;;;13.07;6.70;;;;;;;;;;6284838;28;20170;-63
2023/09/24 07:23:30;;;;;;;12.73;7.00;;;;;;;;;;6287603;28;20466;-63
2023/09/24 07:26:31;;;;;;;12.07;7.38;;;;;;;;;;6284340;28;20092;-64
2023/09/24 07:29:31;;;;;;;15.73;7.20;;;;;;;;;;6287316;28;20075;-64
2023/09/24 07:32:33;;;;;;;11.13;6.75;;;;;;;;;;6288996;28;20052;-63
2023/09/24 07:35:34;;;;;;;15.07;7.53;;;;;;;;;;6286945;28;20139;-64
2023/09/24 07:38:35;;;;;;;13.68;7.63;;;;;;;;;;6287845;28;20425;-63
2023/09/24 07:41:36;;;;;;;12.90;6.55;;;;;;;;;;6287002;28;20039;-63
2023/09/24 07:44:36;;;;;;;8.65;6.45;;;;;;;;;;6288420;28;20214;-63
2023/09/24 07:47:38;;;;;;;10.02;5.95;;;;;;;;;;6286392;28;20513;-63
2023/09/24 07:50:39;;;;;;;11.30;6.18;;;;;;;;;;6286637;28;20044;-63
2023/09/24 07:53:39;;;;;;;11.25;5.70;;;;;;;;;;6286229;28;20099;-63
2023/09/24 07:56:42;;;;;;;8.07;5.25;;;;;;;;;;6286151;28;20102;-62
2023/09/24 07:59:44;;;;;;;9.13;5.35;;;;;;;;;;6285202;28;20064;-63
2023/09/24 08:02:45;;;;;;;9.05;5.20;;;;;;;;;;6286476;28;20549;-62
2023/09/24 08:05:45;;;;;;;12.05;5.50;;;;;;;;;;6287253;28;20518;-62
2023/09/24 08:08:46;;;;;;;10.02;5.18;;;;;;;;;;6287261;28;20039;-63
2023/09/24 08:11:47;;;;;;;13.45;5.75;;;;;;;;;;6287685;28;20403;-63
2023/09/24 08:14:47;;;;;;;11.48;6.10;;;;;;;;;;6293353;28;20106;-64
2023/09/24 08:17:48;;;;;;;11.13;5.90;;;;;;;;;;6291326;28;20450;-63
2023/09/24 08:20:49;;;;;;;8.32;5.90;;;;;;;;;;6288697;28;20045;-63
2023/09/24 08:23:49;;;;;;;13.30;5.90;;;;;;;;;;6291715;28;20045;-63
2023/09/24 08:26:50;;;;;;;8.75;5.35;;;;;;;;;;6291992;28;20139;-69
2023/09/24 08:29:53;;;;;;;8.82;5.13;;;;;;;;;;6290366;28;20041;-61
2023/09/24 08:32:54;;;;;;;10.07;5.80;;;;;;;;;;6290793;28;20570;-62
2023/09/24 08:35:54;;;;;;;9.60;5.25;;;;;;;;;;6287785;28;20039;-70
2023/09/24 08:38:56;;;;;;;9.20;5.72;;;;;;;;;;6279669;28;20426;-69
2023/09/24 08:41:58;;;;;;;10.90;5.88;;;;;;;;;;6290553;28;20052;-62
2023/09/24 08:45:11;;;;;;;11.75;5.80;;;;;;;;;;6287989;28;20400;-62
2023/09/24 08:48:12;;;;;;;11.00;5.97;;;;;;;;;;6279970;28;20135;-64
2023/09/24 08:51:14;;;;;;;10.60;5.72;;;;;;;;;;6290317;28;20373;-65
2023/09/24 08:54:14;;;;;;;17.20;6.07;;;;;;;;;;6291240;28;20102;-60
2023/09/24 08:57:15;;;;;;;10.10;5.57;;;;;;;;;;6280773;28;20151;-68
2023/09/24 09:00:16;;;;;;;9.05;5.70;;;;;;;;;;6287253;28;20048;-61
2023/09/24 09:03:19;;;;;;;11.07;6.40;;;;;;;;;;6279357;28;20400;-63
2023/09/24 09:06:33;;;;;;;11.05;6.45;;;;;;;;;;6291773;28;20050;-62
2023/09/24 09:09:33;;;;;;;10.00;6.65;;;;;;;;;;6291070;28;20045;-60
2023/09/24 09:12:34;;;;;;;11.48;6.63;;;;;;;;;;6292213;28;20434;-61
2023/09/24 09:15:37;;;;;;;8.30;5.28;;;;;;;;;;6292128;28;20049;-61
2023/09/24 09:18:38;;;;;;;9.50;5.63;;;;;;;;;;6291986;28;20057;-64
2023/09/24 09:21:39;;;;;;;12.32;6.63;;;;;;;;;;6291168;28;20045;-79
2023/09/24 09:24:39;;;;;;;14.30;5.90;;;;;;;;;;6291903;28;20101;-64
2023/09/24 09:27:43;;;;;;;9.32;5.25;;;;;;;;;;6278052;28;20056;-69
2023/09/24 09:31:00;;;;;;;8.95;4.60;;;;;;;;;;6296235;28;20335;-76
2023/09/24 09:34:06;;;;;;;9.02;5.32;;;;;;;;;;6287017;28;20121;-68
2023/09/24 09:37:16;;;;;;;9.60;5.38;;;;;;;;;;6292798;28;20539;-70
2023/09/24 09:40:18;;;;;;;8.68;4.60;;;;;;;;;;6296366;28;20456;-71
2023/09/24 09:43:21;;;;;;;7.15;4.93;;;;;;;;;;6289896;28;20494;-75
2023/09/24 09:46:24;;;;;;;8.13;5.03;;;;;;;;;;6291153;28;20050;-69
2023/09/24 09:49:26;;;;;;;7.50;4.32;;;;;;;;;;6289392;28;20087;-69
2023/09/24 09:52:31;;;;;;;;;;;;;;;;;;6289653;28;20040;-70
2023/09/24 09:55:39;;;;;;;7.78;4.55;;;;;;;;;;6292736;28;19928;-70
2023/09/24 09:58:41;;;;;;;6.47;4.10;;;;;;;;;;6291410;28;20060;-71
2023/09/24 10:01:41;;;;;;;6.53;3.45;;;;;;;;;;6293599;28;20055;-64
2023/09/24 10:04:42;;;;;;;8.30;4.20;;;;;;;;;;6293292;28;20068;-63
2023/09/24 10:07:43;;;;;;;6.82;3.85;;;;;;;;;;6294171;28;20088;-62
2023/09/24 10:10:44;;;;;;;6.30;3.95;;;;;;;;;;6295239;28;20056;-63
2023/09/24 10:13:48;;;;;;;7.78;4.10;;;;;;;;;;6289511;28;20060;-69
2023/09/24 10:16:49;;;;;;;6.13;3.70;;;;;;;;;;6291199;28;20044;-63
2023/09/24 10:19:54;;;;;;;8.30;4.70;;;;;;;;;;6291054;28;20044;-61
2023/09/24 10:23:35;;;;;;;7.80;3.80;;;;;;;;;;6286323;28;20044;-63
2023/09/24 10:26:50;;;;;;;6.28;3.60;;;;;;;;;;6294438;28;20050;-66
2023/09/24 10:29:52;;;;;;;7.90;4.38;;;;;;;;;;6294006;28;20132;-63
2023/09/24 10:32:53;;;;;;;5.70;3.40;;;;;;;;;;6294427;28;20126;-63
2023/09/24 10:36:21;;;;;;;6.63;3.25;;;;;;;;;;6288998;28;20491;-65
2023/09/24 10:39:22;;;;;;;6.65;3.30;;;;;;;;;;6290669;28;20061;-62
2023/09/24 10:42:23;;;;;;;10.23;4.13;;;;;;;;;;6288692;28;20827;-63
2023/09/24 10:45:24;;;;;;;5.85;3.60;;;;;;;;;;6292848;28;20052;-62
2023/09/24 10:48:25;;;;;;;7.05;3.80;;;;;;;;;;6287207;28;20076;-67
2023/09/24 10:51:26;;;;;;;6.60;3.58;;;;;;;;;;6289226;28;20348;-74
2023/09/24 10:54:27;;;;;;;6.13;3.78;;;;;;;;;;6287257;28;20058;-62
2023/09/24 10:57:28;;;;;;;6.38;2.97;;;;;;;;;;6291262;28;20495;-65
2023/09/24 11:00:30;;;;;;;4.78;2.97;;;;;;;;;;6290069;28;20075;-62
2023/09/24 11:03:34;;;;;;;5.57;3.13;;;;;;;;;;6287627;28;20045;-62
2023/09/24 11:06:36;;;;;;;5.70;3.20;;;;;;;;;;6288404;28;20043;-63
2023/09/24 11:09:36;;;;;;;6.55;3.17;;;;;;;;;;6286316;28;20048;-62
2023/09/24 11:12:37;;;;;;;5.95;3.10;;;;;;;;;;6285240;28;20516;-62
2023/09/24 11:15:39;;;;;;;7.50;3.40;;;;;;;;;;6292653;28;20097;-55
2023/09/24 11:18:46;;;;;;;6.45;3.38;;;;;;;;;;6301309;28;20042;-64
2023/09/24 11:21:47;;;;;;;8.40;3.20;;;;;;;;;;6288993;28;20040;-64
2023/09/24 11:25:09;;;;;;;7.20;3.72;;;;;;;;;;6285102;28;20071;-63
2023/09/24 11:28:09;;;;;;;5.83;3.43;;;;;;;;;;6284925;28;20090;-64
2023/09/24 11:31:10;;;;;;;6.10;3.20;;;;;;;;;;6263714;28;20060;-65
2023/09/24 11:34:11;;;;;;;6.90;3.33;;;;;;;;;;6270647;28;20454;-64
2023/09/24 11:37:12;;;;;;;5.72;3.03;;;;;;;;;;6285762;28;20491;-66
2023/09/24 11:40:38;;;;;;;6.70;3.28;;;;;;;;;;6284429;28;20047;-64
2023/09/24 11:43:40;;;;;;;5.38;3.03;;;;;;;;;;6285264;28;20364;-69
2023/09/24 11:46:42;;;;;;;8.57;3.47;;;;;;;;;;6282654;28;20465;-64
2023/09/24 11:49:43;;;;;;;;;;;;;;;;;;6287993;28;20499;-67
2023/09/24 11:52:43;;;;;;;5.47;3.13;;;;;;;;;;6286282;28;19926;-64
2023/09/24 11:55:44;;;;;;;6.15;2.88;;;;;;;;;;6268766;28;20488;-64
2023/09/24 11:58:45;;;;;;;7.93;3.50;;;;;;;;;;6287838;28;20482;-64
2023/09/24 12:01:45;;;;;;;7.13;3.20;;;;;;;;;;6285019;28;20564;-64
2023/09/24 12:04:46;;;;;;;7.15;3.20;;;;;;;;;;6286825;28;20041;-64
2023/09/24 12:07:50;;;;;;;6.28;3.40;;;;;;;;;;6287299;28;20119;-63
2023/09/24 12:10:51;;;;;;;6.70;3.80;;;;;;;;;;6287072;28;20044;-65
2023/09/24 12:13:53;;;;;;;7.55;3.88;;;;;;;;;;6286788;28;20449;-64
2023/09/24 12:16:54;;;;;;;6.55;3.25;;;;;;;;;;6287533;28;20044;-64
2023/09/24 12:19:54;;;;;;;8.85;3.97;;;;;;;;;;6287390;28;20041;-66
2023/09/24 12:22:57;;;;;;;6.18;3.33;;;;;;;;;;6287016;28;20044;-64
2023/09/24 12:25:58;;;;;;;5.97;3.72;;;;;;;;;;6286706;28;20417;-65
2023/09/24 12:28:58;;;;;;;10.23;5.20;;;;;;;;;;6287304;28;20044;-64
2023/09/24 12:31:59;;;;;;;6.35;3.40;;;;;;;;;;6267213;28;20076;-64
2023/09/24 12:35:04;;;;;;;5.97;3.00;;;;;;;;;;6285774;28;20090;-63
2023/09/24 12:38:05;;;;;;;5.28;3.10;;;;;;;;;;6281898;28;20058;-64
2023/09/24 12:41:05;;;;;;;6.10;3.15;;;;;;;;;;6285642;28;20045;-63
2023/09/24 12:44:06;;;;;;;5.28;3.05;;;;;;;;;;6286221;28;20131;-64
2023/09/24 12:47:06;;;;;;;5.75;3.13;;;;;;;;;;6285792;28;20378;-65
2023/09/24 12:50:09;;;;;;;5.38;3.47;;;;;;;;;;6282501;28;20044;-64
2023/09/24 12:53:09;;;;;;;6.38;3.75;;;;;;;;;;6283932;28;20052;-65
2023/09/24 12:56:10;;;;;;;7.45;4.07;;;;;;;;;;6284702;28;20454;-64
2023/09/24 12:59:11;;;;;;;5.28;3.13;;;;;;;;;;6288391;28;20410;-64
2023/09/24 13:02:11;;;;;;;6.47;2.83;;;;;;;;;;6291963;28;20064;-64
2023/09/24 13:05:14;;;;;;;4.90;2.65;;;;;;;;;;6290597;28;20063;-64
2023/09/24 13:08:15;;;;;;;5.05;2.58;;;;;;;;;;6289883;28;20541;-65
2023/09/24 13:11:16;;;;;;;6.03;2.80;;;;;;;;;;6290605;28;20056;-65
2023/09/24 13:14:17;;;;;;;7.07;3.10;;;;;;;;;;6291507;28;20113;-64
2023/09/24 13:17:17;;;;;;;4.35;2.80;;;;;;;;;;6288485;28;20052;-65
2023/09/24 13:20:18;;;;;;;6.38;2.83;;;;;;;;;;6292619;28;20052;-64
2023/09/24 13:23:21;;;;;;;5.10;2.50;;;;;;;;;;6290406;28;20087;-65
2023/09/24 13:26:22;;;;;;;4.53;2.45;;;;;;;;;;6289209;28;20132;-65
2023/09/24 13:29:23;;;;;;;5.10;2.40;;;;;;;;;;6292173;28;20036;-64
2023/09/24 13:32:24;;;;;;;;;;;;;;;;;;6291243;28;20109;-64
2023/09/24 13:35:25;;;;;;;7.32;2.92;;;;;;;;;;6286940;28;20423;-64
2023/09/24 13:38:25;;;;;;;7.13;2.97;;;;;;;;;;6289934;28;20036;-64
2023/09/24 13:41:29;;;;;;;8.05;2.97;;;;;;;;;;6289655;28;20476;-65
2023/09/24 13:44:30;;;;;;;5.25;2.92;;;;;;;;;;6288037;28;20043;-65
2023/09/24 13:47:30;;;;;;;4.55;2.95;;;;;;;;;;6289120;28;20458;-64
2023/09/24 13:50:31;;;;;;;5.32;3.13;;;;;;;;;;6290464;28;20495;-64
2023/09/24 13:53:32;;;;;;;7.82;3.05;;;;;;;;;;6289532;28;20467;-64
2023/09/24 13:56:32;;;;;;;5.50;3.00;;;;;;;;;;6289761;28;20045;-64
2023/09/24 13:59:33;;;;;;;7.03;3.10;;;;;;;;;;6289294;28;20493;-65
2023/09/24 14:02:33;;;;;;;6.78;3.00;;;;;;;;;;6288012;28;20053;-65
2023/09/24 14:05:34;;;;;;;6.18;3.20;;;;;;;;;;6288706;28;20423;-65
2023/09/24 14:15:13;;;;;;;5.80;3.13;;;;;;;;;;6287505;28;20495;-64
2023/09/24 14:18:14;;;;;;;7.00;3.33;;;;;;;;;;6288096;28;20068;-64
2023/09/24 14:21:16;;;;;;;5.57;3.42;;;;;;;;;;6289568;28;20067;-64
2023/09/24 14:24:17;;;;;;;7.45;3.50;;;;;;;;;;6289571;28;20052;-64
2023/09/24 14:27:17;;;;;;;8.27;3.67;;;;;;;;;;6286718;28;20539;-65
2023/09/24 14:30:18;;;;;;;7.35;4.25;;;;;;;;;;6289198;28;20560;-64
2023/09/24 14:33:19;;;;;;;6.40;3.97;;;;;;;;;;6287884;28;20044;-64
2023/09/24 14:36:21;;;;;;;7.43;3.45;;;;;;;;;;6289166;28;20044;-64
2023/09/24 14:39:22;;;;;;;7.18;4.43;;;;;;;;;;6288342;28;20586;-64
2023/09/24 14:42:23;;;;;;;11.73;4.53;;;;;;;;;;6289113;28;20479;-64
2023/09/24 14:45:24;;;;;;;6.50;4.30;;;;;;;;;;6284928;28;20043;-64
2023/09/24 14:48:25;;;;;;;6.93;3.70;;;;;;;;;;6286862;28;20407;-64
2023/09/24 14:51:26;;;;;;;6.82;3.55;;;;;;;;;;6288422;28;20071;-64
2023/09/24 14:54:26;;;;;;;8.02;3.90;;;;;;;;;;6288287;28;20044;-66
2023/09/24 14:57:27;;;;;;;6.78;3.67;;;;;;;;;;6289008;28;21212;-64
2023/09/24 15:00:27;;;;;;;9.30;4.10;;;;;;;;;;6288152;28;20522;-64
2023/09/24 15:03:30;;;;;;;8.65;4.25;;;;;;;;;;6287742;28;20044;-65
2023/09/24 15:06:30;;;;;;;8.13;4.03;;;;;;;;;;6286858;28;20080;-64
2023/09/24 15:09:31;;;;;;;6.05;3.67;;;;;;;;;;6268495;28;20491;-65
2023/09/24 15:12:32;;;;;;;7.07;4.00;;;;;;;;;;6285642;28;20049;-65
2023/09/24 15:15:37;;;;;;;6.43;3.67;;;;;;;;;;6269444;28;20052;-68
2023/09/24 15:18:37;;;;;;;9.23;3.88;;;;;;;;;;6282285;28;20113;-67
2023/09/24 15:21:38;;;;;;;7.72;3.90;;;;;;;;;;6281490;28;20514;-68
2023/09/24 15:24:39;;;;;;;7.63;4.32;;;;;;;;;;6282251;28;20055;-72
2023/09/24 15:27:39;;;;;;;9.73;4.40;;;;;;;;;;6288747;28;20047;-68
2023/09/24 15:30:41;;;;;;;7.22;4.10;;;;;;;;;;6295609;28;20599;-64
2023/09/24 15:33:41;;;;;;;;;;;;;;;;;;6290183;28;20046;-65
2023/09/24 15:36:42;;;;;;;6.97;3.70;;;;;;;;;;6257854;28;20383;-65
2023/09/24 15:39:43;;;;;;;7.90;4.03;;;;;;;;;;6287677;28;20465;-67
2023/09/24 15:42:44;;;;;;;6.18;3.90;;;;;;;;;;6285442;28;20796;-69
2023/09/24 15:45:46;;;;;;;7.27;4.20;;;;;;;;;;6285509;28;20113;-73
2023/09/24 15:48:47;;;;;;;11.23;4.40;;;;;;;;;;6286875;28;20043;-70
2023/09/24 15:51:51;;;;;;;7.18;4.47;;;;;;;;;;6289177;28;20429;-67
2023/09/24 15:54:52;;;;;;;7.22;3.85;;;;;;;;;;6290327;28;20074;-69
2023/09/24 15:57:53;;;;;;;6.22;3.92;;;;;;;;;;6283682;28;20495;-64
2023/09/24 16:00:53;;;;;;;5.57;3.83;;;;;;;;;;6286901;28;20056;-63
2023/09/24 16:03:55;;;;;;;6.40;3.80;;;;;;;;;;6294778;28;20132;-69
2023/09/24 16:06:55;;;;;;;7.25;3.33;;;;;;;;;;6288828;28;20422;-70
2023/09/24 16:09:56;;;;;;;6.53;3.97;;;;;;;;;;6287848;28;20052;-62
2023/09/24 16:12:56;;;;;;;8.32;3.80;;;;;;;;;;6286195;28;20041;-63
2023/09/24 16:16:00;;;;;;;7.05;3.63;;;;;;;;;;6293627;28;20051;-61
2023/09/24 16:19:00;;;;;;;6.00;3.90;;;;;;;;;;6289324;28;20098;-64
2023/09/24 16:22:01;;;;;;;7.05;3.90;;;;;;;;;;6294266;28;20071;-63
2023/09/24 16:25:01;;;;;;;5.50;3.50;;;;;;;;;;6288052;28;20037;-66
2023/09/24 16:28:02;;;;;;;5.88;3.78;;;;;;;;;;6287598;28;20127;-66
2023/09/24 16:31:06;;;;;;;7.25;3.67;;;;;;;;;;6305598;28;20035;-72
2023/09/24 16:34:07;;;;;;;8.23;3.72;;;;;;;;;;6291656;28;20052;-70
2023/09/24 16:37:07;;;;;;;7.30;3.72;;;;;;;;;;6292644;28;20040;-72
2023/09/24 16:40:11;;;;;;;5.90;3.55;;;;;;;;;;6293891;28;20036;-65
2023/09/24 16:43:11;;;;;;;6.40;3.40;;;;;;;;;;6294349;28;20479;-72
2023/09/24 16:46:12;;;;;;;6.13;3.75;;;;;;;;;;6286548;28;20174;-64
2023/09/24 16:49:13;;;;;;;6.15;3.53;;;;;;;;;;6296570;28;20124;-64
2023/09/24 16:52:14;;;;;;;5.65;3.80;;;;;;;;;;6297397;28;20378;-68
2023/09/24 16:55:16;;;;;;;6.45;3.42;;;;;;;;;;6298935;28;20085;-73
2023/09/24 16:58:16;;;;;;;5.40;3.50;;;;;;;;;;6287595;28;20056;-72
2023/09/24 17:01:19;;;;;;;6.20;3.47;;;;;;;;;;6288080;28;20055;-65
2023/09/24 17:04:20;;;;;;;8.40;3.75;;;;;;;;;;6290196;28;20053;-65
2023/09/24 17:07:20;;;;;;;6.88;3.30;;;;;;;;;;6287968;28;20148;-64
2023/09/24 17:10:21;;;;;;;6.35;3.22;;;;;;;;;;6295954;28;20445;-68
2023/09/24 17:13:21;;;;;;;8.95;4.00;;;;;;;;;;6291264;28;20518;-65
2023/09/24 17:16:22;;;;;;;8.13;4.20;;;;;;;;;;6291118;28;20482;-67
2023/09/24 17:19:25;;;;;;;6.60;3.60;;;;;;;;;;6290804;28;20493;-66
2023/09/24 17:22:26;;;;;;;6.88;3.92;;;;;;;;;;6291127;28;20048;-72
2023/09/24 17:25:27;;;;;;;6.97;3.50;;;;;;;;;;6290261;28;20098;-72
2023/09/24 17:28:28;;;;;;;8.27;3.53;;;;;;;;;;6289681;28;20100;-69
2023/09/24 17:31:28;;;;;;;8.52;3.90;;;;;;;;;;6284588;28;20395;-68
2023/09/24 17:34:30;;;;;;;7.60;3.60;;;;;;;;;;6273236;28;20048;-64
2023/09/24 17:37:31;;;;;;;;;;;;;;;;;;6286752;28;20570;-65
2023/09/24 17:40:32;;;;;;;6.10;3.70;;;;;;;;;;6288505;28;19959;-63
2023/09/24 17:43:33;;;;;;;7.45;4.03;;;;;;;;;;6290413;28;20051;-69
2023/09/24 17:46:33;;;;;;;9.00;4.00;;;;;;;;;;6283428;28;20049;-66
2023/09/24 17:49:34;;;;;;;7.97;4.40;;;;;;;;;;6290745;28;20032;-69
2023/09/24 17:52:34;;;;;;;7.07;4.20;;;;;;;;;;6287479;28;20036;-65
2023/09/24 17:55:35;;;;;;;7.32;3.67;;;;;;;;;;6286722;28;20048;-67
2023/09/24 17:58:36;;;;;;;7.93;4.50;;;;;;;;;;6287187;28;20033;-66
2023/09/24 18:01:37;;;;;;;10.05;5.03;;;;;;;;;;6284782;28;20510;-66
2023/09/24 18:04:38;;;;;;;7.18;4.05;;;;;;;;;;6286803;28;20045;-65
2023/09/24 18:07:39;;;;;;;9.05;5.05;;;;;;;;;;6288290;28;20063;-65
2023/09/24 18:10:40;;;;;;;10.05;4.72;;;;;;;;;;6267189;28;20052;-63
2023/09/24 18:13:40;;;;;;;8.93;4.47;;;;;;;;;;6290095;28;20048;-63